createdAt,value
2023-04-25T00:00:14.119Z,58.88
2023-04-25T00:02:42.698Z,60.41
2023-04-25T00:05:10.779Z,59.28
2023-04-25T00:07:38.278Z,57.86
2023-04-25T00:10:06.801Z,58.00
2023-04-25T00:12:34.568Z,57.32
2023-04-25T00:15:01.992Z,58.06
2023-04-25T00:17:29.793Z,57.49
2023-04-25T00:19:59.122Z,56.72
2023-04-25T00:22:26.500Z,56.93
2023-04-25T00:24:54.531Z,58.40
2023-04-25T00:27:22.199Z,57.29
2023-04-25T00:29:49.602Z,58.75
2023-04-25T00:32:17.023Z,58.27
2023-04-25T00:34:44.703Z,58.07
2023-04-25T00:37:12.780Z,59.48
2023-04-25T00:39:40.195Z,60.18
2023-04-25T00:42:08.789Z,62.64
2023-04-25T00:44:36.652Z,62.42
2023-04-25T00:47:04.693Z,62.62
2023-04-25T00:49:32.563Z,62.81
2023-04-25T00:52:00.339Z,63.25
2023-04-25T00:54:27.791Z,63.20
2023-04-25T00:56:56.098Z,62.62
2023-04-25T00:59:23.736Z,61.78
2023-04-25T01:01:51.473Z,61.17
2023-04-25T01:04:19.234Z,60.54
2023-04-25T01:06:46.946Z,62.07
2023-04-25T01:09:14.390Z,63.11
2023-04-25T01:11:42.029Z,62.07
2023-04-25T01:14:09.556Z,61.94
2023-04-25T01:16:37.823Z,60.46
2023-04-25T01:19:17.699Z,61.77
2023-04-25T01:21:47.090Z,60.34
2023-04-25T01:24:15.065Z,60.65
2023-04-25T01:26:49.572Z,59.14
2023-04-25T01:29:22.156Z,60.73
2023-04-25T01:31:50.009Z,59.41
2023-04-25T01:34:17.680Z,60.79
2023-04-25T01:36:45.335Z,58.71
2023-04-25T01:39:13.202Z,59.20
2023-04-25T01:41:40.951Z,59.88
2023-04-25T01:44:08.561Z,60.14
2023-04-25T01:46:37.073Z,59.02
2023-04-25T01:49:06.116Z,59.61
2023-04-25T01:51:34.036Z,59.96
2023-04-25T01:54:01.957Z,60.51
2023-04-25T01:56:34.097Z,60.33
2023-04-25T01:59:01.862Z,59.22
2023-04-25T02:01:30.345Z,59.06
2023-04-25T02:03:59.685Z,59.38
2023-04-25T02:06:27.510Z,59.68
2023-04-25T02:08:55.366Z,58.61
2023-04-25T02:11:23.033Z,59.77
2023-04-25T02:13:51.546Z,59.29
2023-04-25T02:16:19.906Z,59.26
2023-04-25T02:18:48.014Z,58.43
2023-04-25T02:21:15.441Z,57.53
2023-04-25T02:23:46.616Z,59.29
2023-04-25T02:26:14.453Z,59.62
2023-04-25T02:28:42.420Z,59.66
2023-04-25T02:31:10.146Z,58.69
2023-04-25T02:33:37.640Z,58.42
2023-04-25T02:36:07.342Z,58.53
2023-04-25T02:38:35.470Z,57.90
2023-04-25T02:41:04.370Z,60.35
2023-04-25T02:43:31.775Z,59.05
2023-04-25T02:45:59.457Z,58.79
2023-04-25T02:48:26.833Z,58.10
2023-04-25T02:50:54.366Z,58.33
2023-04-25T02:53:22.172Z,59.41
2023-04-25T02:55:50.366Z,59.77
2023-04-25T02:58:18.049Z,58.87
2023-04-25T03:00:45.967Z,58.56
2023-04-25T03:03:13.534Z,58.06
2023-04-25T03:05:41.042Z,59.05
2023-04-25T03:08:08.868Z,59.25
2023-04-25T03:10:38.052Z,59.04
2023-04-25T03:13:06.217Z,59.19
2023-04-25T03:15:34.219Z,60.37
2023-04-25T03:18:02.592Z,59.51
2023-04-25T03:20:30.494Z,59.34
2023-04-25T03:22:58.273Z,59.96
2023-04-25T03:25:26.504Z,59.11
2023-04-25T03:27:54.390Z,60.15
2023-04-25T03:30:22.116Z,58.63
2023-04-25T03:32:49.714Z,58.22
2023-04-25T03:35:17.352Z,60.32
2023-04-25T03:37:46.659Z,59.95
2023-04-25T03:40:15.934Z,60.28
2023-04-25T03:42:46.515Z,60.16
2023-04-25T03:45:14.311Z,60.08
2023-04-25T03:47:41.980Z,62.41
2023-04-25T03:50:10.249Z,62.10
2023-04-25T03:52:37.979Z,61.20
2023-04-25T03:55:06.122Z,61.04
2023-04-25T03:57:33.558Z,60.89
2023-04-25T04:00:01.252Z,61.39
2023-04-25T04:02:30.215Z,62.00
2023-04-25T04:04:59.353Z,61.29
2023-04-25T04:07:27.924Z,60.68
2023-04-25T04:09:56.424Z,62.29
2023-04-25T04:12:24.620Z,63.78
2023-04-25T04:14:52.113Z,61.95
2023-04-25T04:17:19.683Z,63.37
2023-04-25T04:19:47.377Z,63.67
2023-04-25T04:22:15.390Z,63.91
2023-04-25T04:24:45.040Z,65.21
2023-04-25T04:27:13.871Z,64.91
2023-04-25T04:29:41.572Z,63.17
2023-04-25T04:32:09.736Z,64.52
2023-04-25T04:34:38.421Z,66.31
2023-04-25T04:37:07.880Z,66.73
2023-04-25T04:39:35.463Z,67.21
2023-04-25T04:42:04.245Z,66.73
2023-04-25T04:44:35.376Z,68.24
2023-04-25T04:47:07.233Z,68.27
2023-04-25T04:49:35.009Z,68.19
2023-04-25T04:52:02.554Z,68.94
2023-04-25T04:54:30.699Z,68.69
2023-04-25T04:56:58.175Z,68.39
2023-04-25T04:59:26.021Z,67.31
2023-04-25T05:01:53.983Z,68.63
2023-04-25T05:04:21.799Z,69.81
2023-04-25T05:06:49.784Z,69.70
2023-04-25T05:09:17.717Z,70.04
2023-04-25T05:11:45.322Z,69.48
2023-04-25T05:14:12.998Z,69.42
2023-04-25T05:16:41.168Z,73.21
2023-04-25T05:19:10.632Z,71.13
2023-04-25T05:21:38.488Z,70.83
2023-04-25T05:24:06.592Z,70.12
2023-04-25T05:26:34.982Z,72.07
2023-04-25T05:29:02.468Z,70.18
2023-04-25T05:31:30.366Z,68.99
2023-04-25T05:33:58.594Z,68.88
2023-04-25T05:36:27.362Z,69.78
2023-04-25T05:38:55.140Z,73.26
2023-04-25T05:41:23.516Z,72.33
2023-04-25T05:43:52.313Z,73.17
2023-04-25T05:46:21.511Z,71.43
2023-04-25T05:48:50.058Z,70.99
2023-04-25T05:51:19.448Z,70.81
2023-04-25T05:53:47.741Z,73.01
2023-04-25T05:56:15.795Z,70.07
2023-04-25T05:58:44.059Z,71.97
2023-04-25T06:01:12.985Z,70.66
2023-04-25T06:03:44.139Z,71.06
2023-04-25T06:06:12.883Z,70.78
2023-04-25T06:08:41.317Z,71.74
2023-04-25T06:11:08.682Z,70.81
2023-04-25T06:13:36.101Z,70.70
2023-04-25T06:16:03.947Z,69.72
2023-04-25T06:18:31.327Z,68.91
2023-04-25T06:20:59.482Z,69.65
2023-04-25T06:23:27.558Z,69.24
2023-04-25T06:25:55.528Z,70.13
2023-04-25T06:28:24.352Z,70.17
2023-04-25T06:30:52.311Z,71.07
2023-04-25T06:33:21.222Z,70.66
2023-04-25T06:35:48.788Z,69.05
2023-04-25T06:38:16.994Z,67.96
2023-04-25T06:40:44.669Z,69.77
2023-04-25T06:43:12.185Z,68.03
2023-04-25T06:45:41.584Z,68.18
2023-04-25T06:48:09.692Z,69.01
2023-04-25T06:50:37.270Z,69.29
2023-04-25T06:53:05.045Z,68.09
2023-04-25T06:55:32.575Z,67.86
2023-04-25T06:58:01.092Z,67.54
2023-04-25T07:00:31.342Z,67.40
2023-04-25T07:02:59.384Z,67.55
2023-04-25T07:05:27.478Z,67.87
2023-04-25T07:07:55.933Z,67.12
2023-04-25T07:10:23.315Z,65.31
2023-04-25T07:12:51.190Z,67.18
2023-04-25T07:15:18.987Z,68.05
2023-04-25T07:17:46.657Z,67.02
2023-04-25T07:20:14.238Z,65.04
2023-04-25T07:22:42.083Z,64.88
2023-04-25T07:25:10.686Z,62.75
2023-04-25T07:27:38.360Z,62.53
2023-04-25T07:30:07.404Z,65.92
2023-04-25T07:32:36.054Z,65.97
2023-04-25T07:35:04.479Z,64.05
2023-04-25T07:37:32.361Z,64.84
2023-04-25T07:40:00.631Z,64.21
2023-04-25T07:42:28.621Z,64.16
2023-04-25T07:44:56.473Z,63.73
2023-04-25T07:47:24.034Z,63.38
2023-04-25T07:49:53.233Z,62.89
2023-04-25T07:52:21.219Z,61.92
2023-04-25T07:54:49.487Z,60.96
2023-04-25T07:57:18.107Z,62.11
2023-04-25T07:59:46.306Z,60.44
2023-04-25T08:02:14.415Z,59.07
2023-04-25T08:04:42.422Z,59.26
2023-04-25T08:07:10.653Z,56.97
2023-04-25T08:09:39.437Z,58.37
2023-04-25T08:12:07.650Z,56.97
2023-04-25T08:14:38.097Z,58.86
2023-04-25T08:17:06.236Z,59.12
2023-04-25T08:19:34.366Z,58.30
2023-04-25T08:22:02.370Z,57.04
2023-04-25T08:24:30.338Z,57.72
2023-04-25T08:26:59.954Z,57.19
2023-04-25T08:29:29.494Z,57.91
2023-04-25T08:31:57.024Z,58.52
2023-04-25T08:34:24.736Z,57.01
2023-04-25T08:36:52.374Z,59.01
2023-04-25T08:39:20.052Z,58.41
2023-04-25T08:41:48.781Z,59.01
2023-04-25T08:44:17.471Z,57.49
2023-04-25T08:46:50.755Z,57.14
2023-04-25T08:49:20.105Z,57.11
2023-04-25T08:51:48.417Z,58.43
2023-04-25T08:54:30.252Z,58.98
2023-04-25T08:57:05.423Z,57.47
2023-04-25T08:59:33.509Z,56.53
2023-04-25T09:02:01.707Z,57.19
2023-04-25T09:04:33.340Z,57.19
2023-04-25T09:07:01.034Z,56.81
2023-04-25T09:09:30.587Z,57.61
2023-04-25T09:11:58.164Z,56.12
2023-04-25T09:14:27.065Z,56.02
2023-04-25T09:17:06.079Z,56.64
2023-04-25T09:19:42.508Z,56.83
2023-04-25T09:22:11.054Z,56.26
2023-04-25T09:24:40.518Z,55.32
2023-04-25T09:27:12.843Z,55.81
2023-04-25T09:29:42.107Z,54.52
2023-04-25T09:32:21.601Z,53.74
2023-04-25T09:34:59.325Z,53.55
2023-04-25T09:37:29.020Z,54.80
2023-04-25T09:40:07.078Z,54.93
2023-04-25T09:42:36.496Z,54.11
2023-04-25T09:45:05.014Z,53.67
2023-04-25T09:47:38.938Z,53.62
2023-04-25T09:50:16.157Z,53.82
2023-04-25T09:52:44.561Z,53.64
2023-04-25T09:55:12.658Z,54.02
2023-04-25T09:57:43.455Z,53.65
2023-04-25T10:00:14.158Z,54.19
2023-04-25T10:02:43.703Z,54.21
2023-04-25T10:05:12.665Z,53.14
2023-04-25T10:07:41.111Z,53.72
2023-04-25T10:10:09.870Z,53.02
2023-04-25T10:12:38.365Z,53.59
2023-04-25T10:15:06.221Z,51.88
2023-04-25T10:17:34.015Z,51.56
2023-04-25T10:20:08.977Z,51.54
2023-04-25T10:22:39.009Z,51.53
2023-04-25T10:25:07.986Z,51.85
2023-04-25T10:27:35.596Z,50.61
2023-04-25T10:30:07.365Z,50.32
2023-04-25T10:32:35.070Z,49.73
2023-04-25T10:35:19.933Z,48.26
2023-04-25T10:38:14.836Z,48.51
2023-04-25T10:40:42.311Z,47.57
2023-04-25T10:43:35.978Z,49.75
2023-04-25T10:46:13.945Z,47.78
2023-04-25T10:48:55.452Z,48.85
2023-04-25T10:51:28.574Z,47.18
2023-04-25T10:54:03.706Z,46.37
2023-04-25T10:56:32.986Z,44.62
2023-04-25T10:59:27.660Z,44.82
2023-04-25T11:01:58.072Z,42.90
2023-04-25T11:04:35.471Z,42.87
2023-04-25T11:07:07.800Z,42.88
2023-04-25T11:09:46.493Z,42.85
2023-04-25T11:12:14.246Z,41.02
2023-04-25T11:14:42.057Z,41.98
2023-04-25T11:17:09.998Z,40.35
2023-04-25T11:19:37.481Z,39.46
2023-04-25T11:22:05.205Z,40.31
2023-04-25T11:24:35.554Z,38.64
2023-04-25T11:27:04.665Z,38.64
2023-04-25T11:29:33.821Z,39.46
2023-04-25T11:32:02.391Z,39.12
2023-04-25T11:34:34.208Z,38.29
2023-04-25T11:37:03.542Z,39.50
2023-04-25T11:39:31.276Z,38.33
2023-04-25T11:41:59.441Z,39.79
2023-04-25T11:44:29.314Z,40.99
2023-04-25T11:46:56.693Z,40.80
2023-04-25T11:49:25.810Z,41.24
2023-04-25T11:51:53.644Z,41.06
2023-04-25T11:54:21.332Z,40.65
2023-04-25T11:56:49.115Z,40.51
2023-04-25T11:59:17.798Z,40.46
2023-04-25T12:01:50.211Z,41.38
2023-04-25T12:04:27.309Z,41.07
2023-04-25T12:06:56.319Z,40.80
2023-04-25T12:09:32.358Z,40.12
2023-04-25T12:12:03.977Z,38.75
2023-04-25T12:14:36.664Z,39.17
2023-04-25T12:17:06.321Z,37.18
2023-04-25T12:19:35.827Z,37.89
2023-04-25T12:22:04.305Z,38.78
2023-04-25T12:24:38.460Z,38.64
2023-04-25T12:27:09.435Z,38.33
2023-04-25T12:32:07.806Z,39.43
2023-04-25T12:34:36.962Z,40.15
2023-04-25T12:37:04.588Z,37.95
2023-04-25T12:39:32.246Z,38.28
2023-04-25T12:42:00.755Z,40.24
2023-04-25T12:44:28.165Z,40.00
2023-04-25T12:46:56.223Z,37.19
2023-04-25T12:49:24.697Z,37.71
2023-04-25T12:51:52.829Z,38.22
2023-04-25T12:54:20.716Z,38.06
2023-04-25T12:56:48.361Z,37.95
2023-04-25T12:59:16.481Z,36.27
2023-04-25T13:01:45.410Z,37.42
2023-04-25T13:04:12.991Z,36.36
2023-04-25T13:06:40.599Z,36.79
2023-04-25T13:09:08.326Z,36.44
2023-04-25T13:11:36.467Z,37.41
2023-04-25T13:14:03.996Z,36.77
2023-04-25T13:16:31.712Z,36.76
2023-04-25T13:18:59.218Z,37.21
2023-04-25T13:21:26.648Z,37.45
2023-04-25T13:23:54.528Z,36.87
2023-04-25T13:26:22.140Z,36.16
2023-04-25T13:28:49.550Z,37.01
2023-04-25T13:31:17.274Z,37.06
2023-04-25T13:33:44.937Z,37.27
2023-04-25T13:36:12.435Z,36.80
2023-04-25T13:38:40.558Z,37.52
2023-04-25T13:41:08.331Z,36.71
2023-04-25T13:43:35.989Z,35.34
2023-04-25T13:46:03.760Z,35.85
2023-04-25T13:48:31.478Z,35.61
2023-04-25T13:50:58.902Z,35.15
2023-04-25T13:53:26.608Z,36.82
2023-04-25T13:55:54.001Z,36.47
2023-04-25T13:58:21.935Z,35.38
2023-04-25T14:00:49.733Z,36.49
2023-04-25T14:03:17.481Z,37.40
2023-04-25T14:05:44.948Z,35.78
2023-04-25T14:08:12.447Z,37.50
2023-04-25T14:10:40.160Z,37.33
2023-04-25T14:13:08.919Z,36.21
2023-04-25T14:15:38.266Z,37.39
2023-04-25T14:18:06.578Z,36.40
2023-04-25T14:20:34.079Z,35.85
2023-04-25T14:23:01.496Z,36.95
2023-04-25T14:25:29.195Z,37.44
2023-04-25T14:27:56.598Z,37.05
2023-04-25T14:30:24.147Z,37.41
2023-04-25T14:32:51.929Z,36.97
2023-04-25T14:35:19.641Z,37.62
2023-04-25T14:37:47.181Z,37.04
2023-04-25T14:40:16.300Z,36.31
2023-04-25T14:42:43.794Z,36.81
2023-04-25T14:45:11.383Z,36.85
2023-04-25T14:47:39.263Z,35.85
2023-04-25T14:50:07.818Z,36.56
2023-04-25T14:52:35.876Z,36.62
2023-04-25T14:55:06.303Z,36.84
2023-04-25T14:57:34.584Z,36.93
2023-04-25T15:00:02.731Z,36.94
2023-04-25T15:02:31.338Z,36.86
2023-04-25T15:04:58.957Z,35.72
2023-04-25T15:07:26.841Z,36.06
2023-04-25T15:09:54.968Z,36.30
2023-04-25T15:12:22.430Z,36.01
2023-04-25T15:14:49.800Z,35.77
2023-04-25T15:17:17.491Z,36.08
2023-04-25T15:19:44.916Z,36.84
2023-04-25T15:22:12.367Z,37.14
2023-04-25T15:24:40.095Z,37.47
2023-04-25T15:27:07.980Z,37.79
2023-04-25T15:29:36.759Z,38.04
2023-04-25T15:32:04.645Z,38.38
2023-04-25T15:34:32.684Z,36.93
2023-04-25T15:37:01.242Z,36.62
2023-04-25T15:39:29.048Z,36.83
2023-04-25T15:41:57.182Z,36.84
2023-04-25T15:44:25.273Z,42.10
2023-04-25T15:46:54.955Z,43.15
2023-04-25T15:49:22.962Z,42.57
2023-04-25T15:51:50.843Z,42.86
2023-04-25T15:54:18.583Z,40.86
2023-04-25T15:56:46.004Z,40.43
2023-04-25T15:59:14.340Z,41.51
2023-04-25T16:01:42.096Z,42.21
2023-04-25T16:04:10.136Z,41.47
2023-04-25T16:06:38.808Z,40.76
2023-04-25T16:09:06.657Z,40.94
2023-04-25T16:11:34.412Z,41.76
2023-04-25T16:14:01.844Z,42.83
2023-04-25T16:16:29.333Z,41.02
2023-04-25T16:18:57.088Z,41.77
2023-04-25T16:21:24.549Z,41.49
2023-04-25T16:23:52.216Z,41.19
2023-04-25T16:26:19.991Z,41.55
2023-04-25T16:28:47.457Z,41.53
2023-04-25T16:31:14.919Z,42.60
2023-04-25T16:33:42.785Z,42.35
2023-04-25T16:36:10.590Z,42.54
2023-04-25T16:38:39.736Z,42.70
2023-04-25T16:41:07.688Z,41.31
2023-04-25T16:43:35.160Z,41.58
2023-04-25T16:46:02.556Z,43.13
2023-04-25T16:48:30.387Z,42.87
2023-04-25T16:50:58.010Z,43.37
2023-04-25T16:53:25.681Z,42.88
2023-04-25T16:55:53.628Z,41.68
2023-04-25T16:58:21.116Z,42.16
2023-04-25T17:00:48.549Z,42.00
2023-04-25T17:03:16.548Z,42.81
2023-04-25T17:05:44.425Z,43.16
2023-04-25T17:08:12.007Z,43.00
2023-04-25T17:10:39.688Z,42.95
2023-04-25T17:13:07.233Z,42.96
2023-04-25T17:15:35.442Z,41.59
2023-04-25T17:18:03.253Z,41.18
2023-04-25T17:20:31.869Z,42.18
2023-04-25T17:22:59.929Z,41.24
2023-04-25T17:25:27.678Z,41.17
2023-04-25T17:27:55.093Z,41.39
2023-04-25T17:30:23.647Z,42.21
2023-04-25T17:32:52.060Z,42.84
2023-04-25T17:35:19.658Z,43.69
2023-04-25T17:37:47.120Z,42.92
2023-04-25T17:40:14.803Z,43.49
2023-04-25T17:42:43.205Z,42.77
2023-04-25T17:45:12.920Z,43.52
2023-04-25T17:47:40.958Z,44.57
2023-04-25T17:50:08.799Z,43.50
2023-04-25T17:52:38.551Z,43.50
2023-04-25T17:55:07.037Z,43.27
2023-04-25T17:57:34.563Z,43.59
2023-04-25T18:00:03.859Z,43.56
2023-04-25T18:02:40.091Z,44.39
2023-04-25T18:05:09.931Z,45.44
2023-04-25T18:07:37.767Z,45.48
2023-04-25T18:10:06.006Z,45.69
2023-04-25T18:12:34.175Z,47.32
2023-04-25T18:15:01.962Z,46.93
2023-04-25T18:17:29.468Z,46.79
2023-04-25T18:19:57.458Z,46.28
2023-04-25T18:22:24.875Z,46.00
2023-04-25T18:24:52.570Z,46.24
2023-04-25T18:27:20.466Z,46.28
2023-04-25T18:29:47.905Z,47.48
2023-04-25T18:32:15.443Z,46.62
2023-04-25T18:34:46.051Z,48.36
2023-04-25T18:37:14.323Z,47.88
2023-04-25T18:39:41.853Z,48.02
2023-04-25T18:42:09.668Z,48.08
2023-04-25T18:44:40.355Z,47.95
2023-04-25T18:47:10.380Z,47.93
2023-04-25T18:49:38.587Z,48.60
2023-04-25T18:52:10.515Z,49.08
2023-04-25T18:54:39.164Z,48.10
2023-04-25T18:57:07.247Z,48.30
2023-04-25T18:59:34.964Z,49.17
2023-04-25T19:02:04.389Z,48.66
2023-04-25T19:04:32.332Z,48.50
2023-04-25T19:07:00.150Z,49.38
2023-04-25T19:09:28.089Z,48.83
2023-04-25T19:11:55.489Z,48.50
2023-04-25T19:14:23.076Z,47.67
2023-04-25T19:16:50.963Z,47.40
2023-04-25T19:19:19.062Z,49.30
2023-04-25T19:21:46.522Z,48.56
2023-04-25T19:24:14.554Z,48.87
2023-04-25T19:26:42.170Z,49.11
2023-04-25T19:29:12.265Z,48.73
2023-04-25T19:31:41.473Z,49.06
2023-04-25T19:34:09.368Z,49.32
2023-04-25T19:36:38.678Z,48.72
2023-04-25T19:39:07.987Z,48.34
2023-04-25T19:41:36.740Z,50.34
2023-04-25T19:44:06.532Z,49.95
2023-04-25T19:46:35.873Z,49.56
2023-04-25T19:49:07.185Z,49.88
2023-04-25T19:51:36.418Z,50.41
2023-04-25T19:54:04.305Z,50.34
2023-04-25T19:56:32.563Z,49.85
2023-04-25T19:59:00.375Z,51.97
2023-04-25T20:01:28.047Z,50.30
2023-04-25T20:03:56.604Z,50.77
2023-04-25T20:06:24.347Z,50.77
2023-04-25T20:08:55.320Z,51.96
2023-04-25T20:11:23.050Z,51.83
2023-04-25T20:13:50.629Z,52.81
2023-04-25T20:16:20.558Z,52.38
2023-04-25T20:18:48.751Z,52.31
2023-04-25T20:21:16.992Z,52.76
2023-04-25T20:23:45.434Z,52.97
2023-04-25T20:26:13.120Z,52.75
2023-04-25T20:28:41.874Z,51.63
2023-04-25T20:31:10.801Z,52.95
2023-04-25T20:33:38.865Z,52.04
2023-04-25T20:36:06.535Z,53.42
2023-04-25T20:38:33.936Z,51.50
2023-04-25T20:41:01.726Z,52.83
2023-04-25T20:43:29.306Z,52.32
2023-04-25T20:45:57.644Z,52.06
2023-04-25T20:48:25.639Z,52.48
2023-04-25T20:50:53.162Z,53.40
2023-04-25T20:53:20.502Z,53.89
2023-04-25T20:55:48.197Z,53.32
2023-04-25T20:58:16.196Z,54.55
2023-04-25T21:00:43.997Z,53.44
2023-04-25T21:03:13.151Z,52.51
2023-04-25T21:05:41.006Z,52.89
2023-04-25T21:08:08.606Z,54.05
2023-04-25T21:10:37.479Z,53.99
2023-04-25T21:13:05.938Z,53.37
2023-04-25T21:15:33.701Z,53.16
2023-04-25T21:18:02.133Z,52.05
2023-04-25T21:20:29.567Z,52.39
2023-04-25T21:22:57.129Z,53.01
2023-04-25T21:25:30.892Z,54.08
2023-04-25T21:27:59.079Z,54.05
2023-04-25T21:30:27.133Z,53.52
2023-04-25T21:32:55.040Z,53.32
2023-04-25T21:35:23.009Z,53.69
2023-04-25T21:37:51.576Z,53.92
2023-04-25T21:40:19.590Z,53.05
2023-04-25T21:42:49.996Z,51.79
2023-04-25T21:45:18.493Z,52.43
2023-04-25T21:47:47.716Z,51.70
2023-04-25T21:50:15.529Z,50.64
2023-04-25T21:52:43.247Z,49.63
2023-04-25T21:55:11.660Z,49.11
2023-04-25T21:57:39.203Z,49.07
2023-04-25T22:00:20.161Z,49.31
2023-04-25T22:02:48.501Z,49.73
2023-04-25T22:05:16.731Z,49.23
2023-04-25T22:07:44.154Z,49.36
2023-04-25T22:10:11.847Z,49.07
2023-04-25T22:12:39.607Z,48.98
2023-04-25T22:15:08.938Z,48.79
2023-04-25T22:17:36.934Z,49.22
2023-04-25T22:20:10.173Z,49.13
2023-04-25T22:22:37.870Z,48.78
2023-04-25T22:25:07.250Z,48.94
2023-04-25T22:27:34.911Z,49.02
2023-04-25T22:30:02.633Z,49.37
2023-04-25T22:32:30.041Z,50.34
2023-04-25T22:34:57.429Z,52.15
2023-04-25T22:37:25.130Z,52.55
2023-04-25T22:39:52.915Z,51.85
2023-04-25T22:42:20.309Z,51.59
2023-04-25T22:44:48.020Z,51.50
2023-04-25T22:47:15.465Z,51.23
2023-04-25T22:49:42.894Z,51.44
2023-04-25T22:52:12.303Z,51.33
2023-04-25T22:54:39.709Z,52.08
2023-04-25T22:57:08.379Z,51.36
2023-04-25T22:59:38.706Z,50.49
2023-04-25T23:02:06.275Z,51.49
2023-04-25T23:04:34.558Z,50.72
2023-04-25T23:07:02.247Z,53.40
2023-04-25T23:09:30.119Z,50.84
2023-04-25T23:11:57.537Z,50.12
2023-04-25T23:14:25.194Z,50.70
2023-04-25T23:16:52.664Z,51.51
2023-04-25T23:19:20.280Z,50.86
2023-04-25T23:21:47.947Z,51.33
2023-04-25T23:24:15.824Z,53.89
2023-04-25T23:26:43.301Z,54.61
2023-04-25T23:29:11.159Z,53.48
2023-04-25T23:31:38.614Z,55.36
2023-04-25T23:34:06.246Z,53.89
2023-04-25T23:36:33.930Z,54.49
2023-04-25T23:39:02.180Z,55.24
2023-04-25T23:41:29.632Z,55.42
2023-04-25T23:43:57.501Z,56.47
2023-04-25T23:46:25.946Z,56.19
2023-04-25T23:48:53.736Z,56.75
2023-04-25T23:51:21.713Z,57.17
2023-04-25T23:53:49.384Z,59.47
2023-04-25T23:56:16.774Z,60.20
2023-04-25T23:58:44.417Z,58.94
